FW6385 Weather Reports


Display with metric or nautical units.
time (UTC)temp
F
wind
direction
speed
MPH
gust
MPH
rain 1hr
in
rain 24hr
in
rain mn
in
humidity
%
barometer
mb
20221208225243 59 83 5.0 13.0 0.00 0.00 0.00 57 1016.4
20221208215242 55 60 7.0 18.0 0.00 0.00 0.00 62 1017.0
20221208205242 54 89 9.0 18.0 0.00 0.00 0.00 62 1016.5
20221208195243 54 86 9.0 20.0 0.00 0.00 0.00 62 1015.1
20221208185251 53 151 7.0 19.0 0.00 0.00 0.00 63 1013.7
20221208185243 53 99 8.0 19.0 0.00 0.00 0.00 62 1015.2
20221208165244 54 101 8.0 17.0 0.00 0.00 0.00 67 1014.3
20221208155243 54 81 7.0 23.0 0.00 0.00 0.00 73 1015.1
20221208152244 54 87 7.0 18.0 0.00 0.00 0.00 72 1016.1
20221208135249 53 165 6.0 13.0 0.00 0.00 0.00 71 1017.2
20221208135243 53 137 7.0 21.0 0.00 0.00 0.00 71 1016.7
20221208122244 54 201 4.0 10.0 0.00 0.00 0.00 69 1018.4
20221208105237 55 218 3.0 12.0 0.00 0.00 0.00 65 1018.4
20221208095235 57 189 6.0 14.0 0.00 0.00 0.00 62 1017.7
20221208092237 59 189 6.0 17.0 0.00 0.00 0.00 57 1016.6
20221208075235 61 195 8.0 18.0 0.00 0.00 0.00 54 1015.6
20221208065237 63 175 9.0 21.0 0.00 0.00 0.00 52 1015.9
20221208055233 66 175 11.0 20.0 0.00 0.00 0.00 47 1016.6
20221208052227 69 168 9.0 19.0 0.00 0.00 0.00 42 1017.0
20221208035228 68 215 6.0 18.0 0.00 0.00 0.00 42 1017.8
20221208025228 65 190 8.0 18.0 0.00 0.00 0.00 45 1018.2
20221208022228 68 190 5.0 17.0 0.00 0.00 0.00 40 1018.3
20221208005227 61 138 7.0 15.0 0.00 0.00 0.00 56 1018.5
20221207235233 59 175 9.0 18.0 0.00 0.00 0.00 58 1018.9